Time;durP1;ratioP1;P1;durP2;ratioP2;P2;SDS_P1;SDS_P2;PMS_P1;PMS_P2;Temp;Humidity;BMP_temperature;BMP_pressure;BME280_temperature;BME280_humidity;BME280_pressure;Samples;Min_cycle;Max_cycle;Signal;HPM_P1;HPM_P2
2021/03/11 00:00:16;;;;;;;36.25;19.88;;;;;;;;;;5000440;28;20029;-80
2021/03/11 00:02:42;;;;;;;37.42;19.60;;;;;;;;;;5013193;28;20049;-80
2021/03/11 00:05:09;;;;;;;40.33;20.83;;;;;;;;;;4978586;28;20029;-79
2021/03/11 00:07:36;;;;;;;40.33;20.67;;;;;;;;;;4997621;28;20116;-79
2021/03/11 00:10:02;;;;;;;33.97;19.58;;;;;;;;;;5010557;28;20030;-80
2021/03/11 00:12:28;;;;;;;39.28;20.15;;;;;;;;;;4998188;28;20366;-80
2021/03/11 00:14:54;;;;;;;35.15;19.02;;;;;;;;;;5014754;28;20026;-80
2021/03/11 00:17:20;;;;;;;39.80;20.40;;;;;;;;;;5016988;28;20099;-79
2021/03/11 00:19:46;;;;;;;54.03;21.67;;;;;;;;;;5016698;28;20169;-80
2021/03/11 00:22:12;;;;;;;39.05;20.33;;;;;;;;;;5007421;28;20370;-80
2021/03/11 00:24:38;;;;;;;39.28;21.08;;;;;;;;;;5013003;28;20037;-79
2021/03/11 00:27:04;;;;;;;37.95;20.05;;;;;;;;;;5017350;28;20018;-80
2021/03/11 00:29:30;;;;;;;41.42;20.35;;;;;;;;;;5012614;28;20479;-80
2021/03/11 00:31:56;;;;;;;38.72;20.52;;;;;;;;;;5006460;28;20022;-79
2021/03/11 00:34:22;;;;;;;41.60;21.15;;;;;;;;;;5016514;28;20122;-79
2021/03/11 00:36:48;;;;;;;37.65;20.23;;;;;;;;;;5016361;28;20062;-80
2021/03/11 00:39:15;;;;;;;37.03;20.23;;;;;;;;;;5011375;28;20038;-79
2021/03/11 00:41:41;;;;;;;40.67;20.88;;;;;;;;;;5014960;28;20121;-79
2021/03/11 00:44:08;;;;;;;38.90;19.88;;;;;;;;;;5011215;28;20139;-80
2021/03/11 00:46:33;;;;;;;41.28;20.63;;;;;;;;;;4997308;28;20069;-80
2021/03/11 00:48:59;;;;;;;39.90;20.55;;;;;;;;;;4996678;28;20019;-80
2021/03/11 00:51:25;;;;;;;46.47;22.27;;;;;;;;;;4996598;28;20470;-80
2021/03/11 00:53:52;;;;;;;43.35;22.25;;;;;;;;;;4996805;28;20235;-80
2021/03/11 00:56:18;;;;;;;40.72;20.27;;;;;;;;;;4996263;28;20035;-80
2021/03/11 00:58:44;;;;;;;40.47;21.63;;;;;;;;;;4996575;28;20037;-79
2021/03/11 01:01:10;;;;;;;43.70;22.13;;;;;;;;;;4996585;28;20034;-79
2021/03/11 01:03:36;;;;;;;43.00;22.27;;;;;;;;;;4996250;28;20034;-80
2021/03/11 01:06:02;;;;;;;39.42;21.27;;;;;;;;;;4996497;28;20071;-80
2021/03/11 01:08:28;;;;;;;46.33;22.05;;;;;;;;;;4996973;28;20026;-80
2021/03/11 01:10:54;;;;;;;46.03;23.45;;;;;;;;;;4996945;28;20467;-80
2021/03/11 01:13:20;;;;;;;42.88;22.90;;;;;;;;;;4996676;28;20027;-80
2021/03/11 01:15:46;;;;;;;42.35;22.50;;;;;;;;;;4996410;28;20022;-80
2021/03/11 01:18:13;;;;;;;43.25;22.90;;;;;;;;;;4996446;28;20117;-80
2021/03/11 01:20:40;;;;;;;44.28;23.08;;;;;;;;;;4996299;28;20046;-80
2021/03/11 01:23:06;;;;;;;46.80;23.20;;;;;;;;;;4996371;28;20475;-80
2021/03/11 01:25:32;;;;;;;45.80;23.85;;;;;;;;;;4996572;28;20117;-80
2021/03/11 01:27:58;;;;;;;48.38;22.85;;;;;;;;;;4996208;28;20062;-80
2021/03/11 01:30:24;;;;;;;52.10;23.27;;;;;;;;;;4996019;28;20022;-80
2021/03/11 01:32:50;;;;;;;47.00;23.38;;;;;;;;;;4995639;28;20045;-80
2021/03/11 01:35:16;;;;;;;51.08;24.15;;;;;;;;;;4995840;28;20072;-80
2021/03/11 01:37:42;;;;;;;48.92;24.48;;;;;;;;;;4978421;28;20061;-80
2021/03/11 01:40:09;;;;;;;46.90;22.98;;;;;;;;;;4996324;28;20057;-80
2021/03/11 01:42:36;;;;;;;45.88;22.88;;;;;;;;;;4995898;28;20030;-79
2021/03/11 01:45:02;;;;;;;49.63;24.45;;;;;;;;;;4995694;28;20363;-79
2021/03/11 01:47:28;;;;;;;44.65;23.48;;;;;;;;;;4995856;28;20154;-79
2021/03/11 01:49:54;;;;;;;44.33;23.75;;;;;;;;;;5002187;28;20057;-80
2021/03/11 01:52:20;;;;;;;49.17;24.77;;;;;;;;;;5021720;28;20033;-80
2021/03/11 01:54:46;;;;;;;47.15;23.80;;;;;;;;;;5022176;28;20037;-80
2021/03/11 01:57:12;;;;;;;52.65;24.63;;;;;;;;;;5014418;28;20040;-80
2021/03/11 01:59:39;;;;;;;50.70;24.73;;;;;;;;;;5015409;28;20149;-80
2021/03/11 02:02:05;;;;;;;46.17;23.88;;;;;;;;;;4996683;28;20064;-80
2021/03/11 02:04:31;;;;;;;48.65;24.45;;;;;;;;;;5007716;28;20411;-80
2021/03/11 02:06:57;;;;;;;54.88;25.08;;;;;;;;;;5008716;28;20025;-80
2021/03/11 02:09:23;;;;;;;53.08;25.42;;;;;;;;;;5008031;28;20664;-79
2021/03/11 02:12:01;;;;;;;46.58;23.70;;;;;;;;;;4996982;28;20525;-79
2021/03/11 02:14:34;;;;;;;51.08;24.73;;;;;;;;;;5014918;28;20038;-80
2021/03/11 02:17:02;;;;;;;49.35;24.17;;;;;;;;;;5006014;28;20382;-80
2021/03/11 02:19:40;;;;;;;50.15;24.30;;;;;;;;;;4995164;28;20113;-80
2021/03/11 02:22:21;;;;;;;48.33;24.73;;;;;;;;;;4995260;28;20023;-80
2021/03/11 02:24:50;;;;;;;49.10;24.13;;;;;;;;;;5014305;28;20051;-80
2021/03/11 02:27:24;;;;;;;51.92;24.83;;;;;;;;;;5014665;28;20057;-79
2021/03/11 02:29:52;;;;;;;48.22;23.67;;;;;;;;;;4994814;28;20475;-80
2021/03/11 02:32:19;;;;;;;46.35;22.88;;;;;;;;;;5009341;28;20105;-80
2021/03/11 02:34:49;;;;;;;49.25;24.88;;;;;;;;;;5014052;28;20030;-80
2021/03/11 02:37:19;;;;;;;46.75;23.73;;;;;;;;;;5013899;28;20036;-80
2021/03/11 02:39:51;;;;;;;50.00;23.90;;;;;;;;;;5015090;28;20021;-80
2021/03/11 02:42:18;;;;;;;49.50;23.67;;;;;;;;;;4997361;28;20034;-80
2021/03/11 02:44:44;;;;;;;46.72;23.75;;;;;;;;;;5005308;28;20717;-80
2021/03/11 02:47:10;;;;;;;41.70;22.83;;;;;;;;;;4997053;28;20117;-80
2021/03/11 02:49:38;;;;;;;45.70;23.70;;;;;;;;;;4994065;28;20038;-80
2021/03/11 02:52:04;;;;;;;49.90;23.77;;;;;;;;;;5012084;28;20026;-80
2021/03/11 02:54:30;;;;;;;47.78;23.98;;;;;;;;;;5014224;28;20128;-80
2021/03/11 02:56:57;;;;;;;46.75;23.00;;;;;;;;;;5014116;28;20057;-80
2021/03/11 02:59:25;;;;;;;47.28;21.60;;;;;;;;;;5014385;28;20022;-80
2021/03/11 03:01:51;;;;;;;45.88;24.23;;;;;;;;;;5013966;28;20034;-79
2021/03/11 03:04:18;;;;;;;50.42;23.60;;;;;;;;;;5013877;28;20030;-80
2021/03/11 03:06:44;;;;;;;42.75;22.08;;;;;;;;;;5000909;28;20057;-80
2021/03/11 03:09:11;;;;;;;46.42;23.58;;;;;;;;;;5014145;28;20026;-80
2021/03/11 03:11:38;;;;;;;46.47;24.52;;;;;;;;;;5014108;28;20493;-80
2021/03/11 03:14:06;;;;;;;46.75;23.80;;;;;;;;;;4985911;28;20122;-80
2021/03/11 03:16:32;;;;;;;50.60;24.15;;;;;;;;;;5013686;28;20037;-80
2021/03/11 03:18:58;;;;;;;45.22;23.25;;;;;;;;;;4997237;28;20421;-80
2021/03/11 03:21:24;;;;;;;46.80;23.35;;;;;;;;;;4997129;28;20026;-80
2021/03/11 03:23:50;;;;;;;48.20;24.48;;;;;;;;;;5003588;28;20370;-81
2021/03/11 03:26:17;;;;;;;48.22;22.95;;;;;;;;;;5000735;28;20022;-81
2021/03/11 03:28:43;;;;;;;45.63;23.73;;;;;;;;;;5003335;28;20026;-81
2021/03/11 03:31:09;;;;;;;52.70;24.00;;;;;;;;;;4995248;28;20053;-81
2021/03/11 03:33:35;;;;;;;48.58;23.13;;;;;;;;;;5004350;28;20022;-80
2021/03/11 03:36:02;;;;;;;47.17;24.08;;;;;;;;;;5014537;28;20034;-81
2021/03/11 03:38:28;;;;;;;50.67;25.25;;;;;;;;;;4997030;28;20057;-81
2021/03/11 03:40:54;;;;;;;45.25;23.88;;;;;;;;;;5017017;28;20057;-80
2021/03/11 03:43:21;;;;;;;48.97;24.85;;;;;;;;;;5028834;28;20125;-81
2021/03/11 03:45:59;;;;;;;53.50;24.23;;;;;;;;;;5015617;28;20062;-80
2021/03/11 03:48:44;;;;;;;46.65;22.95;;;;;;;;;;5010792;28;20109;-81
2021/03/11 03:51:11;;;;;;;49.45;23.70;;;;;;;;;;4998592;28;20057;-81
2021/03/11 03:53:41;;;;;;;53.00;24.88;;;;;;;;;;4999280;28;20041;-81
2021/03/11 03:56:17;;;;;;;49.30;24.75;;;;;;;;;;5018611;28;20030;-81
2021/03/11 03:58:44;;;;;;;49.47;24.40;;;;;;;;;;5017997;28;20030;-81
2021/03/11 04:01:11;;;;;;;48.35;24.65;;;;;;;;;;5018400;28;20026;-81
2021/03/11 04:03:38;;;;;;;49.22;25.08;;;;;;;;;;5018211;28;20045;-81
2021/03/11 04:06:05;;;;;;;44.35;23.30;;;;;;;;;;5018258;28;20022;-81
2021/03/11 04:08:31;;;;;;;50.95;24.50;;;;;;;;;;5005622;28;20037;-81
2021/03/11 04:10:57;;;;;;;49.88;24.42;;;;;;;;;;5018322;28;20505;-81
2021/03/11 04:13:24;;;;;;;51.78;25.83;;;;;;;;;;5018083;28;20112;-81
2021/03/11 04:15:50;;;;;;;47.15;24.25;;;;;;;;;;5027984;28;20473;-81
2021/03/11 04:18:17;;;;;;;51.92;25.52;;;;;;;;;;5021222;28;20030;-81
2021/03/11 04:20:44;;;;;;;51.45;24.80;;;;;;;;;;5018073;28;20381;-81
2021/03/11 04:23:10;;;;;;;56.30;24.83;;;;;;;;;;5017965;28;20060;-81
2021/03/11 04:25:36;;;;;;;46.67;23.95;;;;;;;;;;5018191;28;20022;-81
2021/03/11 04:28:02;;;;;;;51.75;26.05;;;;;;;;;;5021315;28;20025;-81
2021/03/11 04:30:28;;;;;;;50.50;22.58;;;;;;;;;;5020432;28;20014;-81
2021/03/11 04:32:54;;;;;;;52.80;24.02;;;;;;;;;;5034133;28;20030;-81
2021/03/11 04:35:20;;;;;;;49.67;24.40;;;;;;;;;;5017310;28;20069;-81
2021/03/11 04:37:47;;;;;;;47.50;24.60;;;;;;;;;;5017528;28;20033;-81
2021/03/11 04:40:13;;;;;;;51.30;25.75;;;;;;;;;;5018370;28;20021;-81
2021/03/11 04:42:40;;;;;;;47.78;25.05;;;;;;;;;;5017619;28;20022;-81
2021/03/11 04:45:09;;;;;;;47.88;24.75;;;;;;;;;;5017954;28;20395;-80
2021/03/11 04:47:36;;;;;;;49.88;25.08;;;;;;;;;;5017939;28;20108;-81
2021/03/11 04:50:03;;;;;;;54.95;25.15;;;;;;;;;;5017513;28;20050;-81
2021/03/11 04:52:29;;;;;;;50.03;24.40;;;;;;;;;;5016881;28;20485;-81
2021/03/11 04:54:55;;;;;;;48.75;23.27;;;;;;;;;;5017077;28;20050;-81
2021/03/11 04:57:21;;;;;;;51.63;24.88;;;;;;;;;;5017475;28;20113;-81
2021/03/11 04:59:47;;;;;;;49.20;24.25;;;;;;;;;;4988447;28;20471;-81
2021/03/11 05:02:15;;;;;;;47.72;23.73;;;;;;;;;;4997858;28;20026;-81
2021/03/11 05:04:44;;;;;;;45.38;23.08;;;;;;;;;;4997731;28;20037;-80
2021/03/11 05:07:10;;;;;;;51.88;24.60;;;;;;;;;;5016589;28;20073;-81
2021/03/11 05:09:36;;;;;;;47.10;22.67;;;;;;;;;;5017080;28;20054;-81
2021/03/11 05:12:03;;;;;;;47.28;23.30;;;;;;;;;;5017652;28;20034;-81
2021/03/11 05:14:29;;;;;;;49.97;24.48;;;;;;;;;;5016895;28;20125;-81
2021/03/11 05:16:55;;;;;;;45.95;23.00;;;;;;;;;;5017124;28;20077;-81
2021/03/11 05:19:21;;;;;;;49.65;24.92;;;;;;;;;;5016425;28;20462;-81
2021/03/11 05:21:47;;;;;;;48.70;24.27;;;;;;;;;;5016667;28;20046;-81
2021/03/11 05:24:13;;;;;;;49.78;24.83;;;;;;;;;;4998785;28;20022;-81
2021/03/11 05:26:39;;;;;;;49.42;24.67;;;;;;;;;;5016936;28;20030;-81
2021/03/11 05:29:05;;;;;;;50.50;24.55;;;;;;;;;;5016254;28;20022;-81
2021/03/11 05:31:31;;;;;;;49.00;24.80;;;;;;;;;;5021449;28;20076;-81
2021/03/11 05:33:57;;;;;;;51.95;25.38;;;;;;;;;;5012994;28;20026;-80
2021/03/11 05:36:26;;;;;;;52.25;24.75;;;;;;;;;;5030326;28;20033;-80
2021/03/11 05:38:52;;;;;;;50.88;23.90;;;;;;;;;;5016182;28;20084;-79
2021/03/11 05:41:18;;;;;;;51.17;25.77;;;;;;;;;;5016302;28;20394;-79
2021/03/11 05:43:45;;;;;;;55.85;27.85;;;;;;;;;;5016658;28;20065;-79
2021/03/11 05:46:11;;;;;;;52.08;26.45;;;;;;;;;;5016728;28;20030;-79
2021/03/11 05:48:38;;;;;;;55.42;27.77;;;;;;;;;;5015492;28;20134;-79
2021/03/11 05:51:04;;;;;;;55.83;28.20;;;;;;;;;;5015918;28;20042;-80
2021/03/11 05:53:32;;;;;;;63.10;32.00;;;;;;;;;;5016690;28;20038;-81
2021/03/11 05:55:59;;;;;;;54.53;27.25;;;;;;;;;;4997083;28;20026;-81
2021/03/11 05:58:25;;;;;;;57.50;27.33;;;;;;;;;;5012752;28;20026;-81
2021/03/11 06:00:51;;;;;;;57.17;27.90;;;;;;;;;;5015258;28;20044;-81
2021/03/11 06:03:17;;;;;;;59.97;28.98;;;;;;;;;;5012322;28;20034;-81
2021/03/11 06:05:43;;;;;;;65.28;30.98;;;;;;;;;;5017030;28;20018;-81
2021/03/11 06:08:09;;;;;;;58.58;27.58;;;;;;;;;;5027692;28;20049;-81
2021/03/11 06:10:36;;;;;;;67.35;30.35;;;;;;;;;;5017564;28;20030;-81
2021/03/11 06:13:03;;;;;;;61.10;28.88;;;;;;;;;;5018212;28;20482;-80
2021/03/11 06:15:29;;;;;;;64.78;29.17;;;;;;;;;;5013400;28;20477;-81
2021/03/11 06:17:56;;;;;;;58.95;29.23;;;;;;;;;;5015411;28;20037;-81
2021/03/11 06:20:22;;;;;;;63.50;30.35;;;;;;;;;;5016715;28;20029;-81
2021/03/11 06:22:48;;;;;;;60.50;28.92;;;;;;;;;;5015762;28;20073;-81
2021/03/11 06:25:16;;;;;;;58.03;28.08;;;;;;;;;;5015711;28;20025;-80
2021/03/11 06:27:42;;;;;;;62.25;28.35;;;;;;;;;;5016375;28;20371;-80
2021/03/11 06:30:08;;;;;;;59.03;28.40;;;;;;;;;;5017913;28;20106;-81
2021/03/11 06:32:52;;;;;;;63.20;31.17;;;;;;;;;;5017184;28;20104;-81
2021/03/11 06:35:21;;;;;;;65.95;31.08;;;;;;;;;;5016324;28;20034;-81
2021/03/11 06:37:48;;;;;;;59.88;29.30;;;;;;;;;;5016895;28;20018;-81
2021/03/11 06:40:14;;;;;;;64.90;29.85;;;;;;;;;;5016989;28;20108;-80
2021/03/11 06:42:40;;;;;;;61.70;29.90;;;;;;;;;;5027075;28;20038;-81
2021/03/11 06:45:21;;;;;;;63.72;29.30;;;;;;;;;;5016724;28;20552;-81
2021/03/11 06:47:48;;;;;;;61.97;28.13;;;;;;;;;;5016322;28;20065;-81
2021/03/11 06:50:15;;;;;;;59.13;29.45;;;;;;;;;;5016049;28;20048;-80
2021/03/11 06:53:00;;;;;;;64.90;30.58;;;;;;;;;;5015557;28;20026;-79
2021/03/11 06:55:26;;;;;;;60.13;28.15;;;;;;;;;;5009095;28;20034;-80
2021/03/11 06:57:52;;;;;;;60.88;28.13;;;;;;;;;;5016228;28;20049;-80
2021/03/11 07:00:22;;;;;;;64.07;27.73;;;;;;;;;;5017704;28;20054;-81
2021/03/11 07:02:52;;;;;;;56.25;26.88;;;;;;;;;;5022519;28;20041;-81
2021/03/11 07:05:18;;;;;;;56.67;27.48;;;;;;;;;;5025347;28;20026;-81
2021/03/11 07:07:44;;;;;;;58.13;27.52;;;;;;;;;;5018158;28;20033;-81
2021/03/11 07:10:23;;;;;;;60.55;29.23;;;;;;;;;;5017561;28;20037;-81
2021/03/11 07:12:50;;;;;;;65.75;28.55;;;;;;;;;;5005419;28;20022;-81
2021/03/11 07:15:17;;;;;;;63.00;29.40;;;;;;;;;;5018829;28;20030;-80
2021/03/11 07:17:43;;;;;;;57.08;27.25;;;;;;;;;;5021821;28;20033;-81
2021/03/11 07:20:17;;;;;;;56.42;28.02;;;;;;;;;;5021770;28;20070;-81
2021/03/11 07:22:58;;;;;;;54.20;26.73;;;;;;;;;;5020783;28;20047;-80
2021/03/11 07:25:40;;;;;;;58.67;26.80;;;;;;;;;;5003860;28;20387;-80
2021/03/11 07:28:11;;;;;;;52.10;26.30;;;;;;;;;;5020890;28;20405;-81
2021/03/11 07:30:50;;;;;;;53.40;23.98;;;;;;;;;;5009276;28;20022;-80
2021/03/11 07:33:18;;;;;;;51.88;26.42;;;;;;;;;;5003333;28;20025;-81
2021/03/11 07:35:44;;;;;;;54.88;26.25;;;;;;;;;;5019911;28;20041;-81
2021/03/11 07:38:15;;;;;;;53.17;24.88;;;;;;;;;;5002969;28;20370;-81
2021/03/11 07:40:42;;;;;;;57.05;26.35;;;;;;;;;;5018008;28;20041;-81
2021/03/11 07:43:08;;;;;;;51.78;24.92;;;;;;;;;;5041193;28;20053;-80
2021/03/11 07:45:35;;;;;;;47.95;24.45;;;;;;;;;;5014530;28;20026;-81
2021/03/11 07:48:05;;;;;;;50.15;23.85;;;;;;;;;;5022517;28;20053;-81
2021/03/11 07:50:31;;;;;;;49.38;24.30;;;;;;;;;;5025613;28;20033;-81
2021/03/11 07:52:59;;;;;;;48.75;22.95;;;;;;;;;;5020875;28;20738;-81
2021/03/11 07:55:27;;;;;;;51.60;23.80;;;;;;;;;;5022415;28;20021;-81
2021/03/11 07:57:53;;;;;;;48.75;22.58;;;;;;;;;;5009562;28;20026;-81
2021/03/11 08:00:24;;;;;;;45.47;23.70;;;;;;;;;;5020237;28;20018;-81
2021/03/11 08:02:56;;;;;;;43.47;21.98;;;;;;;;;;5020623;28;20105;-82
2021/03/11 08:05:26;;;;;;;43.97;21.60;;;;;;;;;;5025762;28;20030;-81
2021/03/11 08:08:30;;;;;;;44.30;21.23;;;;;;;;;;5039247;28;20029;-81
2021/03/11 08:10:57;;;;;;;43.22;21.52;;;;;;;;;;4952568;29;20027;-81
2021/03/11 08:13:29;;;;;;;43.47;21.63;;;;;;;;;;5014068;28;20045;-81
2021/03/11 08:15:55;;;;;;;48.83;21.90;;;;;;;;;;5018693;28;20481;-81
2021/03/11 08:18:33;;;;;;;42.50;22.05;;;;;;;;;;5019496;28;20093;-81
2021/03/11 08:21:00;;;;;;;48.30;21.98;;;;;;;;;;5019401;28;20022;-81
2021/03/11 08:23:29;;;;;;;41.25;20.48;;;;;;;;;;5012040;28;20069;-81
2021/03/11 08:25:56;;;;;;;44.05;21.25;;;;;;;;;;5010362;28;20073;-81
2021/03/11 08:28:25;;;;;;;45.70;20.60;;;;;;;;;;5032538;28;20100;-80
2021/03/11 08:30:52;;;;;;;41.95;20.73;;;;;;;;;;5038505;28;20048;-81
2021/03/11 08:33:21;;;;;;;45.45;21.23;;;;;;;;;;5032302;28;20033;-82
2021/03/11 08:35:50;;;;;;;43.83;20.35;;;;;;;;;;5026134;28;20092;-82
2021/03/11 08:38:19;;;;;;;41.65;20.02;;;;;;;;;;5018255;28;20034;-82
2021/03/11 08:40:46;;;;;;;41.38;21.10;;;;;;;;;;5029575;28;20041;-81
2021/03/11 08:43:32;;;;;;;44.20;22.08;;;;;;;;;;5006968;28;20425;-82
2021/03/11 08:45:58;;;;;;;43.58;21.13;;;;;;;;;;4998301;28;20041;-82
2021/03/11 08:48:24;;;;;;;41.13;20.42;;;;;;;;;;5012655;28;20018;-82
2021/03/11 08:50:55;;;;;;;40.38;20.48;;;;;;;;;;5029468;28;20046;-82
2021/03/11 08:53:36;;;;;;;40.80;20.25;;;;;;;;;;5030150;28;20500;-80
2021/03/11 08:56:22;;;;;;;38.60;20.20;;;;;;;;;;5018190;28;20563;-80
2021/03/11 08:58:51;;;;;;;41.88;21.48;;;;;;;;;;5017049;28;20089;-80
2021/03/11 09:01:36;;;;;;;41.72;20.70;;;;;;;;;;5023446;28;20026;-80
2021/03/11 09:04:21;;;;;;;45.33;20.23;;;;;;;;;;5018993;28;20030;-81
2021/03/11 09:06:51;;;;;;;43.03;20.33;;;;;;;;;;5018779;28;20044;-80
2021/03/11 09:09:18;;;;;;;44.85;21.27;;;;;;;;;;5000462;28;20030;-81
2021/03/11 09:11:54;;;;;;;44.95;21.23;;;;;;;;;;5018777;28;20057;-80
2021/03/11 09:14:22;;;;;;;42.58;21.38;;;;;;;;;;4998137;28;20041;-81
2021/03/11 09:16:48;;;;;;;47.20;22.63;;;;;;;;;;5017137;28;20022;-80
2021/03/11 09:19:14;;;;;;;52.05;24.52;;;;;;;;;;5013293;28;20045;-81
2021/03/11 09:21:40;;;;;;;55.03;25.02;;;;;;;;;;5017845;28;20029;-81
2021/03/11 09:24:15;;;;;;;52.08;24.48;;;;;;;;;;5019347;28;20072;-81
2021/03/11 09:26:41;;;;;;;62.65;25.40;;;;;;;;;;5019389;28;20026;-81
2021/03/11 09:29:07;;;;;;;54.13;24.70;;;;;;;;;;5019696;28;20606;-82
2021/03/11 09:31:33;;;;;;;56.45;26.05;;;;;;;;;;5017881;28;20053;-81
2021/03/11 09:34:01;;;;;;;67.60;28.63;;;;;;;;;;5016658;28;20069;-80
2021/03/11 09:36:27;;;;;;;63.50;28.13;;;;;;;;;;5012616;28;20026;-81
2021/03/11 09:39:07;;;;;;;66.75;28.48;;;;;;;;;;5016740;28;20080;-82
2021/03/11 09:41:33;;;;;;;69.90;29.40;;;;;;;;;;5016693;28;20026;-82
2021/03/11 09:44:06;;;;;;;64.85;26.95;;;;;;;;;;5021929;28;20462;-82
2021/03/11 09:46:32;;;;;;;67.30;29.83;;;;;;;;;;5016769;28;20053;-82
2021/03/11 09:48:58;;;;;;;67.32;28.75;;;;;;;;;;5001578;28;20427;-83
2021/03/11 09:51:25;;;;;;;59.70;26.77;;;;;;;;;;5010804;28;20459;-82
2021/03/11 09:53:57;;;;;;;67.53;27.73;;;;;;;;;;5017662;28;20053;-82
2021/03/11 09:56:27;;;;;;;60.40;26.65;;;;;;;;;;5016392;28;20057;-82
2021/03/11 09:58:56;;;;;;;61.88;26.92;;;;;;;;;;5016100;28;20030;-83
2021/03/11 10:01:31;;;;;;;63.92;28.00;;;;;;;;;;5027422;28;20370;-82
2021/03/11 10:03:57;;;;;;;57.03;26.05;;;;;;;;;;5010293;28;20033;-82
2021/03/11 10:06:24;;;;;;;60.58;28.30;;;;;;;;;;5016223;28;20031;-82
2021/03/11 10:09:00;;;;;;;56.90;26.90;;;;;;;;;;5020897;28;20026;-82
2021/03/11 10:11:33;;;;;;;58.30;26.25;;;;;;;;;;5015872;28;20054;-82
2021/03/11 10:14:02;;;;;;;58.15;26.95;;;;;;;;;;5015939;28;20486;-82
2021/03/11 10:16:31;;;;;;;56.08;25.08;;;;;;;;;;5015737;28;20088;-82
2021/03/11 10:19:18;;;;;;;53.08;23.77;;;;;;;;;;5018299;28;20501;-82
2021/03/11 10:21:53;;;;;;;52.95;24.73;;;;;;;;;;5013529;28;20026;-81
2021/03/11 10:24:39;;;;;;;52.30;24.95;;;;;;;;;;5013646;28;20037;-81
2021/03/11 10:27:06;;;;;;;49.65;22.15;;;;;;;;;;4999315;28;20025;-81
2021/03/11 10:29:33;;;;;;;49.38;24.52;;;;;;;;;;4998295;28;20033;-81
2021/03/11 10:32:04;;;;;;;54.15;22.75;;;;;;;;;;5015078;28;20034;-81
2021/03/11 10:34:30;;;;;;;52.40;23.10;;;;;;;;;;5012801;28;20029;-81
2021/03/11 10:36:57;;;;;;;46.95;23.15;;;;;;;;;;5014580;28;20026;-81
2021/03/11 10:39:24;;;;;;;41.53;21.98;;;;;;;;;;5019401;28;20026;-82
2021/03/11 10:41:57;;;;;;;49.08;21.02;;;;;;;;;;5027029;28;20688;-82
2021/03/11 10:44:24;;;;;;;38.45;20.13;;;;;;;;;;4998878;28;20389;-81
2021/03/11 10:46:50;;;;;;;37.80;19.55;;;;;;;;;;5015164;28;20037;-82
2021/03/11 10:49:16;;;;;;;30.98;16.65;;;;;;;;;;5014389;28;20104;-82
2021/03/11 10:51:43;;;;;;;31.15;15.93;;;;;;;;;;5012439;28;20033;-82
2021/03/11 10:54:27;;;;;;;31.73;15.88;;;;;;;;;;5014632;28;20033;-81
2021/03/11 10:57:09;;;;;;;24.15;13.55;;;;;;;;;;5009667;28;20732;-81
2021/03/11 10:59:54;;;;;;;19.67;11.75;;;;;;;;;;5010566;28;20026;-81
2021/03/11 11:02:21;;;;;;;24.35;12.65;;;;;;;;;;5014176;28;20107;-81
2021/03/11 11:04:48;;;;;;;22.90;12.38;;;;;;;;;;5014420;28;20038;-81
2021/03/11 11:07:14;;;;;;;17.67;11.23;;;;;;;;;;5013969;28;20557;-81
2021/03/11 11:09:40;;;;;;;25.25;13.18;;;;;;;;;;5008494;28;20026;-81
2021/03/11 11:12:09;;;;;;;22.70;11.80;;;;;;;;;;5016240;28;20045;-81
2021/03/11 11:14:36;;;;;;;23.45;11.27;;;;;;;;;;5009319;28;20053;-81
2021/03/11 11:17:02;;;;;;;21.80;12.25;;;;;;;;;;5012568;28;20033;-81
2021/03/11 11:19:28;;;;;;;22.40;10.75;;;;;;;;;;5015348;28;20157;-81
2021/03/11 11:21:54;;;;;;;20.15;10.40;;;;;;;;;;5012423;28;20042;-81
2021/03/11 11:24:20;;;;;;;18.45;10.32;;;;;;;;;;5013907;28;20026;-81
2021/03/11 11:26:46;;;;;;;16.63;9.60;;;;;;;;;;4996639;28;20029;-81
2021/03/11 11:29:12;;;;;;;15.15;9.32;;;;;;;;;;5013733;28;20026;-81
2021/03/11 11:31:38;;;;;;;18.30;10.13;;;;;;;;;;5013313;28;20032;-82
2021/03/11 11:34:05;;;;;;;18.58;9.57;;;;;;;;;;5003585;28;20116;-79
2021/03/11 11:36:31;;;;;;;16.08;9.75;;;;;;;;;;5008514;28;20038;-81
2021/03/11 11:38:57;;;;;;;17.60;9.68;;;;;;;;;;5012433;28;20109;-81
2021/03/11 11:41:23;;;;;;;13.95;8.48;;;;;;;;;;5008905;28;20057;-82
2021/03/11 11:43:49;;;;;;;14.68;8.20;;;;;;;;;;5015691;28;20049;-81
2021/03/11 11:46:15;;;;;;;11.48;7.53;;;;;;;;;;5014658;28;20069;-81
2021/03/11 11:48:41;;;;;;;12.05;6.65;;;;;;;;;;5022732;28;20628;-82
2021/03/11 11:51:07;;;;;;;10.60;6.70;;;;;;;;;;5001738;28;20042;-83
2021/03/11 11:53:33;;;;;;;13.43;5.80;;;;;;;;;;5022682;28;20044;-81
2021/03/11 11:55:59;;;;;;;11.88;5.90;;;;;;;;;;5034266;28;20018;-82
2021/03/11 11:58:25;;;;;;;13.32;5.45;;;;;;;;;;5034947;28;20026;-82
2021/03/11 12:00:51;;;;;;;9.73;5.30;;;;;;;;;;5042578;28;20056;-82
2021/03/11 12:03:17;;;;;;;8.20;4.90;;;;;;;;;;5034095;28;20018;-82
2021/03/11 12:05:43;;;;;;;7.20;4.65;;;;;;;;;;5031389;28;20031;-81
2021/03/11 12:08:09;;;;;;;10.35;5.38;;;;;;;;;;5036202;28;20053;-81
2021/03/11 12:10:36;;;;;;;8.35;4.32;;;;;;;;;;5038370;28;20090;-81
2021/03/11 12:13:02;;;;;;;7.97;4.38;;;;;;;;;;5037075;28;20042;-81
2021/03/11 12:15:28;;;;;;;6.63;4.10;;;;;;;;;;5034868;28;20037;-79
2021/03/11 12:17:54;;;;;;;6.03;4.15;;;;;;;;;;5038388;28;20026;-79
2021/03/11 12:20:20;;;;;;;7.53;4.40;;;;;;;;;;5037598;28;20548;-80
2021/03/11 12:22:46;;;;;;;7.85;4.20;;;;;;;;;;5020592;28;20482;-81
2021/03/11 12:25:13;;;;;;;6.57;4.68;;;;;;;;;;5005046;28;20057;-81
2021/03/11 12:27:38;;;;;;;9.75;4.30;;;;;;;;;;5024123;28;20378;-80
2021/03/11 12:30:05;;;;;;;7.60;4.60;;;;;;;;;;5015191;28;20026;-80
2021/03/11 12:32:31;;;;;;;7.60;4.82;;;;;;;;;;5017630;28;20038;-80
2021/03/11 12:34:57;;;;;;;6.97;4.60;;;;;;;;;;5024235;28;20032;-80
2021/03/11 12:37:23;;;;;;;9.02;4.30;;;;;;;;;;5017649;28;20034;-80
2021/03/11 12:39:49;;;;;;;7.78;4.72;;;;;;;;;;5009635;28;20540;-80
2021/03/11 12:42:15;;;;;;;8.55;4.65;;;;;;;;;;5013336;28;20104;-80
2021/03/11 12:44:41;;;;;;;10.77;5.45;;;;;;;;;;5017404;28;20037;-81
2021/03/11 12:47:07;;;;;;;11.90;4.90;;;;;;;;;;5016987;28;20029;-80
2021/03/11 12:49:33;;;;;;;11.05;5.50;;;;;;;;;;5016827;28;20042;-81
2021/03/11 12:51:59;;;;;;;8.70;5.00;;;;;;;;;;5017942;28;20037;-81
2021/03/11 12:54:25;;;;;;;8.40;5.28;;;;;;;;;;5015650;28;20109;-80
2021/03/11 12:56:52;;;;;;;6.97;4.85;;;;;;;;;;5013269;28;20025;-80
2021/03/11 12:59:20;;;;;;;10.23;5.00;;;;;;;;;;5011460;28;20462;-81
2021/03/11 13:01:46;;;;;;;6.95;4.57;;;;;;;;;;5015880;28;20477;-81
2021/03/11 13:04:12;;;;;;;9.25;5.10;;;;;;;;;;5001260;28;20037;-80
2021/03/11 13:06:38;;;;;;;7.00;4.38;;;;;;;;;;5016581;28;20588;-80
2021/03/11 13:09:04;;;;;;;6.18;4.50;;;;;;;;;;4988924;28;20528;-80
2021/03/11 13:11:30;;;;;;;7.97;5.03;;;;;;;;;;5013018;28;20193;-80
2021/03/11 13:13:56;;;;;;;7.47;4.38;;;;;;;;;;5011429;28;20080;-81
2021/03/11 13:16:22;;;;;;;8.00;4.65;;;;;;;;;;4998663;28;21349;-81
2021/03/11 13:18:50;;;;;;;8.63;4.50;;;;;;;;;;5016976;28;20080;-81
2021/03/11 13:21:16;;;;;;;7.20;4.50;;;;;;;;;;5015960;28;20113;-80
2021/03/11 13:23:42;;;;;;;6.15;4.32;;;;;;;;;;5015741;28;20037;-81
2021/03/11 13:26:08;;;;;;;9.02;4.82;;;;;;;;;;5014514;28;20105;-80
2021/03/11 13:28:34;;;;;;;8.43;4.93;;;;;;;;;;5016455;28;20056;-81
2021/03/11 13:31:00;;;;;;;5.78;4.30;;;;;;;;;;5016490;28;20750;-80
2021/03/11 13:33:26;;;;;;;13.45;6.07;;;;;;;;;;5017394;28;20022;-81
2021/03/11 13:35:52;;;;;;;9.85;6.25;;;;;;;;;;5016467;28;20033;-81
2021/03/11 13:38:18;;;;;;;9.20;5.97;;;;;;;;;;4997884;28;20018;-81
2021/03/11 13:40:45;;;;;;;8.63;5.28;;;;;;;;;;5014793;28;20092;-81
2021/03/11 13:43:11;;;;;;;8.45;5.43;;;;;;;;;;5017401;28;20041;-81
2021/03/11 13:45:37;;;;;;;9.00;5.35;;;;;;;;;;5015840;28;20021;-81
2021/03/11 13:48:03;;;;;;;10.75;5.78;;;;;;;;;;5017693;28;20038;-80
2021/03/11 13:50:29;;;;;;;8.13;5.60;;;;;;;;;;5015950;28;20085;-81
2021/03/11 13:52:55;;;;;;;8.13;5.60;;;;;;;;;;4994106;28;20068;-80
2021/03/11 13:55:21;;;;;;;8.98;5.10;;;;;;;;;;4993213;28;20041;-81
2021/03/11 13:57:47;;;;;;;6.03;4.57;;;;;;;;;;4970585;28;20022;-81
2021/03/11 14:00:13;;;;;;;6.85;4.57;;;;;;;;;;5002138;28;20030;-81
2021/03/11 14:02:43;;;;;;;6.30;4.03;;;;;;;;;;4986745;28;20030;-81
2021/03/11 14:05:12;;;;;;;6.78;4.28;;;;;;;;;;4993454;28;20042;-81
2021/03/11 14:07:38;;;;;;;5.95;3.58;;;;;;;;;;4990925;28;20122;-81
2021/03/11 14:10:04;;;;;;;3.53;2.60;;;;;;;;;;4990292;28;20557;-81
2021/03/11 14:12:31;;;;;;;3.88;2.60;;;;;;;;;;4989187;28;20034;-81
2021/03/11 14:14:57;;;;;;;3.88;2.45;;;;;;;;;;4990158;28;20038;-81
2021/03/11 14:17:23;;;;;;;3.45;2.33;;;;;;;;;;4983600;28;20094;-80
2021/03/11 14:19:49;;;;;;;2.35;1.65;;;;;;;;;;4986074;28;20356;-81
2021/03/11 14:22:15;;;;;;;2.67;1.60;;;;;;;;;;4985021;28;20411;-81
2021/03/11 14:24:41;;;;;;;3.75;1.70;;;;;;;;;;4994005;28;20042;-79